Roseboom, New York
Current Conditions -  °F | °C
As of 5:55 AM on Sunday 26 Oct 2014 (Local Time) from KNY0 Reporting Station
Overcast Overcast  
Wind Chill: 42°   Ceiling: 6500
Heat Index: 45°   Visibility: 10mi
Dew Point: 37°   Wind: 5mph
Humidity: 75%   Direction: 270°W
Pressure: 29.52"   Gusts: NA
Location:  42.74°N, 74.78°W
Report Text: KNY0 260955Z AUTO 27004KT 10SM OVC065 07/03 A2952 RMK AO2 T00700028
Loading
Personal Weather Stations






























Interactive Weather Map
Tropical Storm Tracking
New forecast layout! Learn more

10-Day Weather Forecast

Advertisements
Track Severe Weather on mobile